createdAt,value
2022-12-13T00:01:37.418Z,97605.66
2022-12-13T00:04:11.595Z,97607.04
2022-12-13T00:06:51.454Z,97612.85
2022-12-13T00:09:23.864Z,97616.35
2022-12-13T00:12:02.726Z,97614.94
2022-12-13T00:14:35.690Z,97613.97
2022-12-13T00:17:15.760Z,97616.48
2022-12-13T00:19:49.440Z,97618.42
2022-12-13T00:22:29.137Z,97620.28
2022-12-13T00:30:18.619Z,97626.81
2022-12-13T00:32:57.737Z,97627.05
2022-12-13T00:40:48.690Z,97629.32
2022-12-13T00:44:12.605Z,97625.94
2022-12-13T00:52:27.208Z,97629.08
2022-12-13T00:55:00.443Z,97635.77
2022-12-13T00:57:38.829Z,97638.21
2022-12-13T01:00:13.687Z,97640.17
2022-12-13T01:08:25.762Z,97646.16
2022-12-13T01:11:06.062Z,97647.70
2022-12-13T01:22:58.936Z,97655.85
2022-12-13T01:25:33.252Z,97654.12
2022-12-13T01:28:36.522Z,97655.64
2022-12-13T01:31:11.683Z,97655.58
2022-12-13T01:34:39.080Z,97653.60
2022-12-13T01:37:11.432Z,97651.34
2022-12-13T01:39:49.870Z,97652.93
2022-12-13T01:42:23.444Z,97649.61
2022-12-13T01:49:38.812Z,97646.84
2022-12-13T01:55:29.704Z,97655.70
2022-12-13T01:58:56.303Z,97650.73
2022-12-13T02:14:02.586Z,97666.25
2022-12-13T02:30:46.660Z,97675.70
2022-12-13T02:51:37.677Z,97675.44
2022-12-13T03:03:28.750Z,97679.10
2022-12-13T03:07:27.324Z,97682.16
2022-12-13T03:32:24.307Z,97683.37
2022-12-13T03:38:23.427Z,97683.48
2022-12-13T03:46:16.513Z,97693.36
2022-12-13T03:48:57.886Z,97694.35
2022-12-13T03:51:35.169Z,97691.74
2022-12-13T03:55:04.475Z,97693.27
2022-12-13T03:57:40.049Z,97692.52
2022-12-13T04:01:03.908Z,97692.96
2022-12-13T04:03:45.095Z,97694.67
2022-12-13T04:07:22.057Z,97693.63
2022-12-13T04:10:47.682Z,97696.91
2022-12-13T04:17:32.654Z,97701.79
2022-12-13T04:24:34.347Z,97703.80
2022-12-13T04:31:15.858Z,97709.69
2022-12-13T04:34:20.576Z,97709.16
2022-12-13T04:50:47.262Z,97706.37
2022-12-13T04:53:21.173Z,97704.72
2022-12-13T04:56:00.648Z,97703.30
2022-12-13T04:58:33.271Z,97707.66
2022-12-13T05:02:23.433Z,97706.12
2022-12-13T05:05:03.334Z,97705.65
2022-12-13T05:07:35.576Z,97706.23
2022-12-13T05:11:11.607Z,97714.00
2022-12-13T05:14:32.897Z,97711.77
2022-12-13T05:17:05.251Z,97711.06
2022-12-13T05:19:38.786Z,97708.69
2022-12-13T05:22:20.813Z,97710.51
2022-12-13T05:25:43.195Z,97712.82
2022-12-13T05:33:52.182Z,97714.46
2022-12-13T05:40:20.385Z,97722.46
2022-12-13T05:43:00.725Z,97719.52
2022-12-13T05:45:38.748Z,97720.30
2022-12-13T05:49:00.826Z,97721.17
2022-12-13T05:51:40.810Z,97720.43
2022-12-13T05:54:13.380Z,97717.67
2022-12-13T05:56:53.557Z,97722.59
2022-12-13T05:59:25.827Z,97721.57
2022-12-13T06:02:05.471Z,97722.02
2022-12-13T06:10:35.577Z,97725.23
2022-12-13T06:13:21.901Z,97728.88
2022-12-13T06:16:54.564Z,97730.20
2022-12-13T06:19:33.056Z,97730.81
2022-12-13T06:22:05.481Z,97732.39
2022-12-13T06:24:44.407Z,97734.25
2022-12-13T06:36:21.067Z,97742.11
2022-12-13T06:38:53.321Z,97746.82
2022-12-13T06:41:32.410Z,97752.84
2022-12-13T06:44:04.711Z,97752.61
2022-12-13T06:46:44.044Z,97754.16
2022-12-13T06:49:16.220Z,97757.90
2022-12-13T06:51:55.152Z,97759.55
2022-12-13T06:54:27.374Z,97760.38
2022-12-13T06:57:08.219Z,97766.06
2022-12-13T06:59:41.212Z,97765.94
2022-12-13T07:02:24.761Z,97768.14
2022-12-13T07:05:46.825Z,97772.27
2022-12-13T07:08:25.899Z,97775.61
2022-12-13T07:10:58.582Z,97777.70
2022-12-13T07:13:37.175Z,97777.94
2022-12-13T07:16:10.707Z,97780.41
2022-12-13T07:23:35.617Z,97793.52
2022-12-13T07:27:16.862Z,97796.64
2022-12-13T07:30:59.637Z,97798.23
2022-12-13T07:38:22.163Z,97807.54
2022-12-13T07:41:01.370Z,97809.29
2022-12-13T07:43:34.072Z,97806.06
2022-12-13T07:46:13.675Z,97810.48
2022-12-13T07:48:45.945Z,97811.41
2022-12-13T07:56:29.910Z,97819.27
2022-12-13T07:59:02.634Z,97820.95
2022-12-13T08:01:42.553Z,97816.55
2022-12-13T08:04:16.956Z,97819.52
2022-12-13T08:06:56.216Z,97815.66
2022-12-13T08:10:13.572Z,97820.42
2022-12-13T08:12:52.200Z,97824.14
2022-12-13T08:15:25.680Z,97824.80
2022-12-13T08:22:15.009Z,97824.16
2022-12-13T08:34:31.861Z,97841.95
2022-12-13T08:37:11.295Z,97841.16
2022-12-13T08:44:35.275Z,97840.34
2022-12-13T08:47:23.139Z,97837.89
2022-12-13T08:50:47.230Z,97833.30
2022-12-13T08:53:28.124Z,97832.94
2022-12-13T09:00:41.204Z,97804.45
2022-12-13T09:03:13.653Z,97800.33
2022-12-13T09:05:48.126Z,97795.77
2022-12-13T09:08:24.652Z,97796.69
2022-12-13T09:11:10.439Z,97809.34
2022-12-13T09:14:45.594Z,97811.77
2022-12-13T09:30:43.272Z,97831.61
2022-12-13T09:33:28.132Z,97838.23
2022-12-13T09:45:22.735Z,97843.16
2022-12-13T09:49:01.175Z,97842.15
2022-12-13T09:55:55.351Z,97843.46
2022-12-13T10:03:26.087Z,97840.73
2022-12-13T10:10:08.244Z,97842.25
2022-12-13T10:12:42.097Z,97846.56
2022-12-13T10:15:25.135Z,97841.75
2022-12-13T10:22:20.032Z,97832.20
2022-12-13T10:30:10.886Z,97828.79
2022-12-13T10:33:04.548Z,97830.80
2022-12-13T10:41:32.235Z,97839.15
2022-12-13T10:53:25.781Z,97777.66
2022-12-13T10:56:02.135Z,97770.38
2022-12-13T11:02:41.761Z,97762.72
2022-12-13T11:06:43.474Z,97762.77
2022-12-13T11:41:53.709Z,97785.05
2022-12-13T11:53:52.938Z,97792.27
2022-12-13T11:56:45.617Z,97796.92
2022-12-13T12:04:31.313Z,97786.67
2022-12-13T12:07:31.164Z,97788.10
2022-12-13T12:11:24.727Z,97793.49
2022-12-13T12:18:28.849Z,97794.58
2022-12-13T12:25:37.115Z,97805.64
2022-12-13T12:51:35.785Z,97827.70
2022-12-13T12:58:55.080Z,97827.81
2022-12-13T13:10:39.125Z,97834.45
2022-12-13T13:18:34.930Z,97838.52
2022-12-13T13:29:51.026Z,97834.21
2022-12-13T13:42:11.402Z,97829.59
2022-12-13T13:45:56.864Z,97839.31
2022-12-13T13:49:12.667Z,97839.14
2022-12-13T14:04:51.611Z,97859.09
2022-12-13T14:17:42.197Z,97863.67
2022-12-13T14:21:27.912Z,97863.39
2022-12-13T14:29:17.287Z,97875.21
2022-12-13T14:36:42.974Z,97888.83
2022-12-13T14:40:39.154Z,97891.09
2022-12-13T14:48:28.493Z,97895.77
2022-12-13T14:51:03.002Z,97895.73
2022-12-13T14:58:06.259Z,97894.79
2022-12-13T15:00:45.961Z,97898.80
2022-12-13T15:03:27.714Z,97900.98
2022-12-13T15:06:03.715Z,97905.23
2022-12-13T15:08:42.005Z,97903.48
2022-12-13T15:11:15.122Z,97904.67
2022-12-13T15:13:52.715Z,97902.77
2022-12-13T15:16:30.544Z,97896.73
2022-12-13T15:19:30.783Z,97896.69
2022-12-13T15:22:18.876Z,97898.08
2022-12-13T15:24:54.380Z,97899.45
2022-12-13T15:27:48.198Z,97905.27
2022-12-13T15:30:21.907Z,97905.11
2022-12-13T15:33:09.573Z,97902.31
2022-12-13T15:35:42.253Z,97901.20
2022-12-13T15:38:28.678Z,97897.27
2022-12-13T15:41:06.043Z,97898.09
2022-12-13T15:43:44.861Z,97898.61
2022-12-13T15:46:24.792Z,97896.32
2022-12-13T15:48:58.662Z,97894.77
2022-12-13T15:51:31.326Z,97892.71
2022-12-13T15:54:47.484Z,97894.98
2022-12-13T15:57:26.042Z,97891.59
2022-12-13T16:00:29.691Z,97890.23
2022-12-13T16:03:15.093Z,97890.33
2022-12-13T16:08:53.486Z,97894.16
2022-12-13T16:11:34.724Z,97893.38
2022-12-13T16:14:48.765Z,97890.90
2022-12-13T16:17:26.703Z,97887.55
2022-12-13T16:20:16.384Z,97897.58
2022-12-13T16:22:49.251Z,97897.25
2022-12-13T16:25:23.699Z,97894.61
2022-12-13T16:28:02.341Z,97893.76
2022-12-13T16:33:48.733Z,97886.27
2022-12-13T16:39:34.299Z,97888.29
2022-12-13T16:42:07.168Z,97889.02
2022-12-13T16:44:40.979Z,97891.15
2022-12-13T16:47:22.234Z,97895.94
2022-12-13T16:50:04.078Z,97899.90
2022-12-13T16:52:36.614Z,97902.13
2022-12-13T16:55:12.565Z,97901.27
2022-12-13T16:57:45.043Z,97902.23
2022-12-13T17:00:20.406Z,97902.29
2022-12-13T17:03:10.828Z,97902.77
2022-12-13T17:05:45.422Z,97904.52
2022-12-13T17:08:26.005Z,97905.36
2022-12-13T17:11:06.956Z,97903.80
2022-12-13T17:13:39.350Z,97909.65
2022-12-13T17:16:12.361Z,97910.17
2022-12-13T17:18:45.859Z,97909.88
2022-12-13T17:21:18.300Z,97913.52
2022-12-13T17:23:51.372Z,97913.36
2022-12-13T17:26:31.408Z,97919.33
2022-12-13T17:29:04.476Z,97924.92
2022-12-13T17:31:37.536Z,97927.25
2022-12-13T17:34:09.963Z,97922.67
2022-12-13T17:36:43.626Z,97922.41
2022-12-13T17:39:16.189Z,97916.88
2022-12-13T17:41:54.921Z,97911.10
2022-12-13T17:44:28.864Z,97916.49
2022-12-13T17:47:03.527Z,97917.23
2022-12-13T17:49:35.963Z,97918.63
2022-12-13T17:52:09.131Z,97924.45
2022-12-13T17:54:41.567Z,97926.41
2022-12-13T17:57:14.431Z,97920.52
2022-12-13T17:59:48.226Z,97927.11
2022-12-13T18:02:23.149Z,97931.73
2022-12-13T18:05:02.603Z,97929.18
2022-12-13T18:07:35.378Z,97931.28
2022-12-13T18:10:17.736Z,97928.83
2022-12-13T18:12:50.176Z,97926.03
2022-12-13T18:15:23.313Z,97927.36
2022-12-13T18:18:12.888Z,97929.50
2022-12-13T18:20:47.540Z,97937.48
2022-12-13T18:23:21.320Z,97942.69
2022-12-13T18:25:53.715Z,97943.34
2022-12-13T18:28:26.181Z,97950.55
2022-12-13T18:31:05.028Z,97957.08
2022-12-13T18:33:38.332Z,97950.58
2022-12-13T18:36:12.753Z,97954.50
2022-12-13T18:38:45.788Z,97956.00
2022-12-13T18:41:22.089Z,97953.25
2022-12-13T18:44:02.915Z,97953.75
2022-12-13T18:46:44.723Z,97955.29
2022-12-13T18:49:18.946Z,97953.63
2022-12-13T18:51:51.564Z,97956.89
2022-12-13T18:54:26.123Z,97964.46
2022-12-13T18:56:58.551Z,97957.23
2022-12-13T18:59:33.304Z,97956.23
2022-12-13T19:02:05.900Z,97955.04
2022-12-13T19:04:38.480Z,97957.33
2022-12-13T19:07:11.091Z,97956.33
2022-12-13T19:09:43.697Z,97955.78
2022-12-13T19:12:29.676Z,97959.04
2022-12-13T19:15:05.146Z,97953.92
2022-12-13T19:17:38.655Z,97952.77
2022-12-13T19:20:20.791Z,97956.23
2022-12-13T19:22:53.361Z,97957.59
2022-12-13T19:25:25.827Z,97959.81
2022-12-13T19:27:58.652Z,97955.92
2022-12-13T19:30:31.794Z,97960.23
2022-12-13T19:33:04.306Z,97957.70
2022-12-13T19:35:36.975Z,97958.58
2022-12-13T19:38:13.158Z,97959.92
2022-12-13T19:40:45.604Z,97961.29
2022-12-13T19:43:23.191Z,97965.39
2022-12-13T19:45:56.019Z,97958.30
2022-12-13T19:48:28.441Z,97956.02
2022-12-13T19:51:08.192Z,97952.48
2022-12-13T19:53:43.884Z,97955.08
2022-12-13T19:56:18.986Z,97953.95
2022-12-13T20:02:05.947Z,97952.61
2022-12-13T20:04:38.796Z,97948.69
2022-12-13T20:07:11.644Z,97948.55
2022-12-13T20:09:43.883Z,97949.59
2022-12-13T20:12:16.106Z,97951.17
2022-12-13T20:14:48.317Z,97953.47
2022-12-13T20:17:20.610Z,97951.17
2022-12-13T20:19:55.736Z,97946.52
2022-12-13T20:22:28.690Z,97949.55
2022-12-13T20:25:00.940Z,97945.36
2022-12-13T20:27:33.245Z,97949.23
2022-12-13T20:30:08.547Z,97951.19
2022-12-13T20:32:41.259Z,97953.80
2022-12-13T20:35:13.732Z,97957.38
2022-12-13T20:37:48.465Z,97961.66
2022-12-13T20:40:26.024Z,97966.42
2022-12-13T20:42:58.614Z,97970.84
2022-12-13T20:45:30.858Z,97974.70
2022-12-13T20:48:03.108Z,97973.09
2022-12-13T20:50:35.712Z,97973.94
2022-12-13T20:53:08.144Z,97972.53
2022-12-13T20:55:40.757Z,97976.05
2022-12-13T20:58:22.408Z,97981.05
2022-12-13T21:00:55.052Z,97979.41
2022-12-13T21:03:27.760Z,97982.88
2022-12-13T21:06:00.442Z,97983.29
2022-12-13T21:12:51.792Z,97987.73
2022-12-13T21:15:24.123Z,97996.36
2022-12-13T21:18:03.250Z,98000.52
2022-12-13T21:20:35.565Z,98006.12
2022-12-13T21:24:19.437Z,98009.64
2022-12-13T21:26:52.338Z,98014.65
2022-12-13T21:29:31.346Z,98011.64
2022-12-13T21:32:03.664Z,98009.35
2022-12-13T21:34:42.142Z,98004.90
2022-12-13T21:37:14.596Z,98000.75
2022-12-13T21:44:38.114Z,97995.61
2022-12-13T21:59:22.883Z,97987.06
2022-12-13T22:02:44.282Z,97986.42
2022-12-13T22:06:13.150Z,97975.37
2022-12-13T22:10:01.051Z,97972.39
2022-12-13T22:12:41.961Z,97968.33
2022-12-13T22:19:09.455Z,97958.00
2022-12-13T22:21:44.626Z,97955.41
2022-12-13T22:25:07.097Z,97961.33
2022-12-13T22:28:12.479Z,97957.26
2022-12-13T22:35:13.310Z,97950.31
2022-12-13T22:38:34.549Z,97946.25
2022-12-13T22:41:16.272Z,97944.06
2022-12-13T22:44:35.638Z,97940.73
2022-12-13T22:47:24.862Z,97941.13
2022-12-13T22:58:57.681Z,97938.69
2022-12-13T23:01:31.850Z,97941.80
2022-12-13T23:04:04.752Z,97940.35
2022-12-13T23:07:09.177Z,97941.26
2022-12-13T23:15:30.388Z,97954.60
2022-12-13T23:18:09.591Z,97954.02
2022-12-13T23:20:41.959Z,97952.66
2022-12-13T23:24:13.348Z,97955.02
2022-12-13T23:26:45.956Z,97951.28
2022-12-13T23:29:18.448Z,97949.09
2022-12-13T23:40:54.952Z,97932.17
2022-12-13T23:51:37.964Z,97925.45
2022-12-13T23:56:02.400Z,97931.84
